PWSweather.com
Personal Weather Stations
Station Observations
MAHIABEACH
Mahia Beach, Mahia Peninsula Hawkes Bay -NZ 4108

Mahia BeachMahia Peninsula Hawkes Bay -NZ 4108

Lat: -39.087594, Lon: 177.87261128

Elevation: 20

Station Type: ScientificSales WS1093

http://wairoa.net/mahia/index.htm

Latest ConditionsUpdated 11:15:05 PM GMT+12:12 Wednesday, Jul 29, 2015
Currently Today's Max Today's Min Today's Average
Temperature 63.1°F17.3°C 133.3°F56.3°C -36.8°F-38.2°C 48.0°F8.9°C
Dew Point 58.6°F14.8°C 117.9°F47.7°C -43.0°F-41.7°C 41.0°F5.0°C
Winds 15.8 mph N25.4 kmh N 20.1 mph N32.3 kmh N - 11.0 mph 17.7 kmh
Wind Gusts 65.3 mph105.1 kmh 65.3 mph105.1 kmh - -
Humidity 85% 100% 59% 78%
Pressure 29.98 in1015.2 mb 29.98 in1015.2 mb 29.57 in1001.4 mb -
Precipitation - 0.08 in2.0 mm - -
Hour Temp Dew Point Humidity Winds Wind Gusts Pressure Precip Precip Rate Daily Precip Total
11:15 PM 63.1°F17.3°C 58.6°F14.8°C 85% 15.8 mph N25.4 kmh N 65.3 mph105.1 kmh 29.98 in1015.2 mb 0.00 in0.0 mm 0.00 in0.0 mm 0.08 in2.0 mm
11:00 PM 29.1°F-1.6°C 22.8°F-5.1°C 77% 20.1 mph N32.3 kmh N 54.8 mph88.2 kmh 29.97 in1014.9 mb 0.00 in0.0 mm 0.00 in0.0 mm 0.08 in2.0 mm
10:45 PM 60.6°F15.9°C 55.4°F13.0°C 83% 16.2 mph NNW26.1 kmh NNW 51.0 mph82.1 kmh 29.96 in1014.6 mb 0.00 in0.0 mm 0.00 in0.0 mm 0.08 in2.0 mm
10:30 PM 38.8°F3.8°C 34.4°F1.3°C 84% 17.1 mph N27.5 kmh N 58.6 mph94.3 kmh 29.96 in1014.6 mb 0.00 in0.0 mm 0.00 in0.0 mm 0.08 in2.0 mm
10:15 PM 77.7°F25.4°C 72.6°F22.6°C 84% 15.0 mph NW24.1 kmh NW 47.2 mph76.0 kmh 29.96 in1014.6 mb 0.00 in0.0 mm 0.00 in0.0 mm 0.08 in2.0 mm
10:00 PM 33.8°F1.0°C 30.4°F-0.9°C 87% 15.2 mph NNW24.5 kmh NNW 40.3 mph64.9 kmh 29.96 in1014.6 mb 0.00 in0.0 mm 0.00 in0.0 mm 0.08 in2.0 mm
09:45 PM -14.1°F-25.6°C -15.8°F-26.6°C 92% 14.9 mph NNW24.0 kmh NNW 61.5 mph99.0 kmh 29.96 in1014.6 mb 0.00 in0.0 mm 0.00 in0.0 mm 0.08 in2.0 mm
09:30 PM 37.9°F3.3°C 34.1°F1.2°C 86% 15.2 mph NNW24.5 kmh NNW 48.8 mph78.5 kmh 29.95 in1014.2 mb 0.00 in0.0 mm 0.00 in0.0 mm 0.08 in2.0 mm
09:15 PM 38.3°F3.5°C 35.4°F1.9°C 89% 14.3 mph NNW23.0 kmh NNW 41.8 mph67.3 kmh 29.94 in1013.9 mb 0.00 in0.0 mm 0.00 in0.0 mm 0.08 in2.0 mm
09:00 PM 31.3°F-0.4°C 27.9°F-2.3°C 87% 14.1 mph NW22.7 kmh NW 51.0 mph82.1 kmh 29.94 in1013.9 mb 0.00 in0.0 mm 0.00 in0.0 mm 0.08 in2.0 mm
08:45 PM 54.9°F12.7°C 51.7°F10.9°C 89% 15.1 mph NW24.3 kmh NW 45.6 mph73.4 kmh 29.93 in1013.5 mb 0.00 in0.0 mm 0.00 in0.0 mm 0.08 in2.0 mm
08:30 PM 82.2°F27.9°C 77.3°F25.2°C 85% 14.8 mph NW23.8 kmh NW 45.6 mph73.4 kmh 29.93 in1013.5 mb 0.00 in0.0 mm 0.00 in0.0 mm 0.08 in2.0 mm
08:15 PM 26.8°F-2.9°C 22.3°F-5.4°C 83% 16.6 mph WNW26.7 kmh WNW 50.1 mph80.6 kmh 29.92 in1013.2 mb 0.01 in0.3 mm 0.00 in0.0 mm 0.08 in2.0 mm
08:00 PM 40.5°F4.7°C 36.0°F2.2°C 84% 14.0 mph NNW22.5 kmh NNW 45.6 mph73.4 kmh 29.91 in1012.9 mb 0.01 in0.3 mm 0.00 in0.0 mm 0.08 in2.0 mm
07:45 PM 15.3°F-9.3°C 12.9°F-10.6°C 90% 14.9 mph N24.0 kmh N 51.0 mph82.1 kmh 29.91 in1012.9 mb 0.01 in0.3 mm 0.00 in0.0 mm 0.08 in2.0 mm
07:30 PM 26.2°F-3.2°C 23.2°F-4.9°C 88% 13.9 mph NW22.4 kmh NW 46.3 mph74.5 kmh 29.90 in1012.5 mb 0.01 in0.3 mm 0.04 in1.0 mm 0.08 in2.0 mm
07:15 PM 10.6°F-11.9°C 7.3°F-13.7°C 86% 16.7 mph NW26.9 kmh NW 40.3 mph64.9 kmh 29.90 in1012.5 mb 0.00 in0.0 mm 0.00 in0.0 mm 0.07 in1.8 mm
07:00 PM 2.7°F-16.3°C -1.0°F-18.3°C 84% 13.4 mph NW21.6 kmh NW 34.2 mph55.0 kmh 29.89 in1012.2 mb 0.00 in0.0 mm 0.00 in0.0 mm 0.07 in1.8 mm
06:45 PM -16.1°F-26.7°C -19.5°F-28.6°C 83% 14.0 mph NNW22.5 kmh NNW 36.5 mph58.7 kmh 29.88 in1011.9 mb 0.01 in0.3 mm 0.00 in0.0 mm 0.07 in1.8 mm
06:30 PM 56.8°F13.8°C 51.4°F10.8°C 82% 15.7 mph N25.3 kmh N 30.4 mph48.9 kmh 29.87 in1011.5 mb 0.01 in0.3 mm 0.00 in0.0 mm 0.07 in1.8 mm
06:15 PM 16.7°F-8.5°C 12.2°F-11.0°C 82% 14.4 mph N23.2 kmh N 31.1 mph50.1 kmh 29.86 in1011.2 mb 0.02 in0.5 mm 0.00 in0.0 mm 0.07 in1.8 mm
06:00 PM 37.0°F2.8°C 31.1°F-0.5°C 80% 16.3 mph N26.2 kmh N 37.4 mph60.2 kmh 29.86 in1011.2 mb 0.02 in0.5 mm 0.01 in0.3 mm 0.07 in1.8 mm
05:45 PM 26.2°F-3.2°C 21.5°F-5.8°C 82% 14.5 mph NW23.3 kmh NW 30.4 mph48.9 kmh 29.84 in1010.5 mb 0.01 in0.3 mm 0.00 in0.0 mm 0.06 in1.5 mm
05:30 PM 68.9°F20.5°C 65.6°F18.7°C 89% 16.6 mph NW26.7 kmh NW 38.7 mph62.3 kmh 29.84 in1010.5 mb 0.01 in0.3 mm 0.04 in1.0 mm 0.06 in1.5 mm
05:15 PM 63.1°F17.3°C 58.6°F14.8°C 85% 11.4 mph N18.3 kmh N 51.0 mph82.1 kmh 29.84 in1010.5 mb 0.00 in0.0 mm 0.00 in0.0 mm 0.05 in1.3 mm
05:00 PM 44.8°F7.1°C 40.2°F4.6°C 84% 13.1 mph NW21.1 kmh NW 33.6 mph54.1 kmh 29.82 in1009.8 mb 0.00 in0.0 mm 0.00 in0.0 mm 0.05 in1.3 mm
04:45 PM 63.1°F17.3°C 57.2°F14.0°C 81% 14.3 mph WNW23.0 kmh WNW 41.2 mph66.3 kmh 29.82 in1009.8 mb 0.00 in0.0 mm 0.00 in0.0 mm 0.05 in1.3 mm
04:30 PM 34.2°F1.2°C 28.7°F-1.8°C 80% 14.2 mph NW22.9 kmh NW 43.4 mph69.8 kmh 29.82 in1009.8 mb 0.00 in0.0 mm 0.00 in0.0 mm 0.05 in1.3 mm
04:15 PM 69.1°F20.6°C 65.4°F18.6°C 88% 10.9 mph W17.5 kmh W 28.9 mph46.5 kmh 29.81 in1009.5 mb 0.00 in0.0 mm 0.00 in0.0 mm 0.05 in1.3 mm
04:00 PM 49.1°F9.5°C 42.9°F6.1°C 79% 12.9 mph N20.8 kmh N 37.4 mph60.2 kmh 29.80 in1009.1 mb 0.00 in0.0 mm 0.00 in0.0 mm 0.05 in1.3 mm
03:45 PM 61.5°F16.4°C 55.3°F12.9°C 80% 14.0 mph N22.5 kmh N 52.6 mph84.7 kmh 29.80 in1009.1 mb 0.00 in0.0 mm 0.00 in0.0 mm 0.05 in1.3 mm
03:30 PM 37.9°F3.3°C 32.9°F0.5°C 82% 13.5 mph N21.7 kmh N 47.2 mph76.0 kmh 29.80 in1009.1 mb 0.00 in0.0 mm 0.00 in0.0 mm 0.05 in1.3 mm
03:15 PM 100.6°F38.1°C 90.0°F32.2°C 72% 13.4 mph N21.6 kmh N 33.6 mph54.1 kmh 29.79 in1008.8 mb 0.00 in0.0 mm 0.00 in0.0 mm 0.05 in1.3 mm
03:00 PM 34.7°F1.5°C 27.0°F-2.8°C 73% 13.6 mph N21.9 kmh N 44.1 mph71.0 kmh 29.78 in1008.5 mb 0.00 in0.0 mm 0.00 in0.0 mm 0.05 in1.3 mm
02:45 PM 38.1°F3.4°C 29.9°F-1.2°C 72% 12.9 mph NW20.8 kmh NW 37.4 mph60.2 kmh 29.78 in1008.5 mb 0.00 in0.0 mm 0.00 in0.0 mm 0.05 in1.3 mm
02:30 PM 73.9°F23.3°C 63.2°F17.3°C 70% 14.0 mph N22.5 kmh N 54.8 mph88.2 kmh 29.77 in1008.1 mb 0.00 in0.0 mm 0.00 in0.0 mm 0.05 in1.3 mm
02:15 PM 65.7°F18.7°C 57.9°F14.4°C 76% 12.6 mph NW20.3 kmh NW 31.1 mph50.1 kmh 29.77 in1008.1 mb 0.00 in0.0 mm 0.00 in0.0 mm 0.05 in1.3 mm
02:00 PM 32.2°F0.1°C 26.7°F-2.9°C 80% 14.1 mph NNW22.7 kmh NNW 45.0 mph72.4 kmh 29.77 in1008.1 mb 0.00 in0.0 mm 0.00 in0.0 mm 0.05 in1.3 mm
01:45 PM 0.5°F-17.5°C -3.8°F-19.9°C 81% 14.9 mph NW24.0 kmh NW 51.7 mph83.2 kmh 29.76 in1007.8 mb 0.00 in0.0 mm 0.00 in0.0 mm 0.05 in1.3 mm
01:30 PM -36.8°F-38.2°C -43.0°F-41.7°C 68% 14.5 mph N23.3 kmh N 39.6 mph63.7 kmh 29.76 in1007.8 mb 0.00 in0.0 mm 0.00 in0.0 mm 0.05 in1.3 mm
01:15 PM 37.0°F2.8°C 29.5°F-1.4°C 74% 13.6 mph NNW21.9 kmh NNW 39.6 mph63.7 kmh 29.76 in1007.8 mb 0.00 in0.0 mm 0.00 in0.0 mm 0.05 in1.3 mm
01:00 PM 8.2°F-13.2°C 6.5°F-14.2°C 92% 12.3 mph N19.8 kmh N 41.2 mph66.3 kmh 29.75 in1007.5 mb 0.00 in0.0 mm 0.00 in0.0 mm 0.05 in1.3 mm
12:45 PM 24.4°F-4.2°C 23.2°F-4.9°C 95% 14.6 mph N23.5 kmh N 35.8 mph57.6 kmh 29.75 in1007.5 mb 0.01 in0.3 mm 0.00 in0.0 mm 0.05 in1.3 mm
12:30 PM 54.5°F12.5°C 53.1°F11.7°C 95% 15.0 mph NW24.1 kmh NW 44.1 mph71.0 kmh 29.74 in1007.1 mb 0.02 in0.5 mm 0.00 in0.0 mm 0.05 in1.3 mm
12:15 PM 26.2°F-3.2°C 26.3°F-3.2°C 100% 14.8 mph NW23.8 kmh NW 55.5 mph89.3 kmh 29.74 in1007.1 mb 0.04 in1.0 mm 0.00 in0.0 mm 0.05 in1.3 mm
12:00 PM 28.2°F-2.1°C 28.0°F-2.2°C 99% 13.7 mph WNW22.0 kmh WNW 38.0 mph61.2 kmh 29.74 in1007.1 mb 0.04 in1.0 mm 0.03 in0.8 mm 0.05 in1.3 mm
11:45 AM 46.9°F8.3°C 46.7°F8.2°C 99% 12.2 mph N19.6 kmh N 38.0 mph61.2 kmh 29.75 in1007.5 mb 0.02 in0.5 mm 0.00 in0.0 mm 0.02 in0.5 mm
11:30 AM 23.7°F-4.6°C 23.5°F-4.7°C 99% 13.7 mph W22.0 kmh W 57.7 mph92.9 kmh 29.75 in1007.5 mb 0.02 in0.5 mm 0.04 in1.0 mm 0.02 in0.5 mm
11:15 AM 38.1°F3.4°C 37.9°F3.3°C 99% 12.0 mph WNW19.3 kmh WNW 38.7 mph62.3 kmh 29.73 in1006.8 mb 0.01 in0.3 mm 0.00 in0.0 mm 0.01 in0.3 mm
11:00 AM 52.0°F11.1°C 51.7°F10.9°C 99% 12.5 mph WNW20.1 kmh WNW 56.4 mph90.8 kmh 29.74 in1007.1 mb 0.01 in0.3 mm 0.01 in0.3 mm 0.01 in0.3 mm
10:45 AM 37.9°F3.3°C 37.7°F3.2°C 99% 14.3 mph NW23.0 kmh NW 35.8 mph57.6 kmh 29.73 in1006.8 mb 0.00 in0.0 mm 0.00 in0.0 mm 0.00 in0.0 mm
10:30 AM 52.2°F11.2°C 52.2°F11.2°C 100% 15.9 mph NW25.6 kmh NW 58.6 mph94.3 kmh 29.73 in1006.8 mb 0.00 in0.0 mm 0.00 in0.0 mm 0.00 in0.0 mm
10:15 AM 34.5°F1.4°C 33.0°F0.6°C 94% 14.2 mph NW22.9 kmh NW 47.9 mph77.1 kmh 29.72 in1006.4 mb 0.00 in0.0 mm 0.00 in0.0 mm 0.00 in0.0 mm
10:00 AM -2.7°F-19.3°C -4.8°F-20.4°C 90% 14.6 mph NW23.5 kmh NW 43.4 mph69.8 kmh 29.71 in1006.1 mb 0.00 in0.0 mm 0.00 in0.0 mm 0.00 in0.0 mm
09:45 AM 116.1°F46.7°C 114.5°F45.8°C 95% 11.0 mph NW17.7 kmh NW 35.8 mph57.6 kmh 29.71 in1006.1 mb 0.00 in0.0 mm 0.00 in0.0 mm 0.00 in0.0 mm
09:30 AM 67.3°F19.6°C 65.5°F18.6°C 94% 10.7 mph NW17.2 kmh NW 37.4 mph60.2 kmh 29.70 in1005.8 mb 0.00 in0.0 mm 0.00 in0.0 mm 0.00 in0.0 mm
09:15 AM 27.0°F-2.8°C 26.0°F-3.3°C 96% 10.9 mph NW17.5 kmh NW 47.9 mph77.1 kmh 29.70 in1005.8 mb 0.00 in0.0 mm 0.00 in0.0 mm 0.00 in0.0 mm
09:00 AM 63.3°F17.4°C 60.4°F15.8°C 91% 13.3 mph NW21.4 kmh NW 36.5 mph58.7 kmh 29.69 in1005.4 mb 0.00 in0.0 mm 0.00 in0.0 mm 0.00 in0.0 mm
08:45 AM 60.1°F15.6°C 50.3°F10.2°C 70% 10.3 mph WNW16.6 kmh WNW 32.7 mph52.6 kmh 29.67 in1004.7 mb 0.00 in0.0 mm 0.00 in0.0 mm 0.00 in0.0 mm
08:30 AM 61.7°F16.5°C 50.2°F10.1°C 66% 7.2 mph W11.6 kmh W 17.4 mph28.0 kmh 29.66 in1004.4 mb 0.00 in0.0 mm 0.00 in0.0 mm 0.00 in0.0 mm
08:15 AM 133.3°F56.3°C 117.9°F47.7°C 65% 5.1 mph N8.2 kmh N 17.4 mph28.0 kmh 29.65 in1004.1 mb 0.00 in0.0 mm 0.00 in0.0 mm 0.00 in0.0 mm
08:00 AM -0.8°F-18.2°C -9.9°F-23.3°C 64% 3.9 mph WNW6.3 kmh WNW 14.5 mph23.3 kmh 29.63 in1003.4 mb 0.00 in0.0 mm 0.00 in0.0 mm 0.00 in0.0 mm
07:45 AM 30.2°F-1.0°C 20.6°F-6.3°C 67% 6.4 mph WNW10.3 kmh WNW 32.7 mph52.6 kmh 29.62 in1003.0 mb 0.00 in0.0 mm 0.00 in0.0 mm 0.00 in0.0 mm
07:30 AM 69.8°F21.0°C 59.2°F15.1°C 69% 4.2 mph W6.8 kmh W 17.4 mph28.0 kmh 29.62 in1003.0 mb 0.00 in0.0 mm 0.00 in0.0 mm 0.00 in0.0 mm
07:15 AM 41.4°F5.2°C 32.0°F0.0°C 69% 6.4 mph W10.3 kmh W 25.1 mph40.4 kmh 29.61 in1002.7 mb 0.00 in0.0 mm 0.00 in0.0 mm 0.00 in0.0 mm
07:00 AM 46.4°F8.0°C 36.0°F2.2°C 67% 4.0 mph W6.4 kmh W 28.2 mph45.4 kmh 29.60 in1002.4 mb 0.00 in0.0 mm 0.00 in0.0 mm 0.00 in0.0 mm
06:45 AM 61.9°F16.6°C 50.0°F10.0°C 65% 6.3 mph W10.1 kmh W 22.8 mph36.7 kmh 29.59 in1002.0 mb 0.00 in0.0 mm 0.00 in0.0 mm 0.00 in0.0 mm
06:30 AM 57.4°F14.1°C 45.7°F7.6°C 65% 5.5 mph W8.9 kmh W 36.5 mph58.7 kmh 29.60 in1002.4 mb 0.00 in0.0 mm 0.00 in0.0 mm 0.00 in0.0 mm
06:15 AM 76.5°F24.7°C 64.7°F18.2°C 67% 5.0 mph NNW8.0 kmh NNW 16.8 mph27.0 kmh 29.59 in1002.0 mb 0.00 in0.0 mm 0.00 in0.0 mm 0.00 in0.0 mm
06:00 AM 66.4°F19.1°C 55.1°F12.8°C 67% 7.0 mph NW11.3 kmh NW 31.1 mph50.1 kmh 29.59 in1002.0 mb 0.00 in0.0 mm 0.00 in0.0 mm 0.00 in0.0 mm
05:45 AM 28.6°F-1.9°C 18.7°F-7.4°C 66% 7.6 mph W12.2 kmh W 34.2 mph55.0 kmh 29.58 in1001.7 mb 0.00 in0.0 mm 0.00 in0.0 mm 0.00 in0.0 mm
05:30 AM 62.8°F17.1°C 50.9°F10.5°C 65% 7.7 mph W12.4 kmh W 34.9 mph56.2 kmh 29.58 in1001.7 mb 0.00 in0.0 mm 0.00 in0.0 mm 0.00 in0.0 mm
05:15 AM 53.4°F11.9°C 42.0°F5.6°C 65% 9.1 mph WNW14.6 kmh WNW 34.2 mph55.0 kmh 29.58 in1001.7 mb 0.00 in0.0 mm 0.00 in0.0 mm 0.00 in0.0 mm
05:00 AM 59.7°F15.4°C 47.9°F8.8°C 65% 8.4 mph W13.5 kmh W 41.8 mph67.3 kmh 29.57 in1001.4 mb 0.00 in0.0 mm 0.00 in0.0 mm 0.00 in0.0 mm
04:45 AM 59.7°F15.4°C 48.4°F9.1°C 66% 7.1 mph W11.4 kmh W 34.2 mph55.0 kmh 29.57 in1001.4 mb 0.00 in0.0 mm 0.00 in0.0 mm 0.00 in0.0 mm
04:30 AM 28.8°F-1.8°C 17.8°F-7.9°C 63% 7.5 mph W12.1 kmh W 41.8 mph67.3 kmh 29.57 in1001.4 mb 0.00 in0.0 mm 0.00 in0.0 mm 0.00 in0.0 mm
04:15 AM 49.6°F9.8°C 38.0°F3.3°C 64% 4.9 mph W7.9 kmh W 28.9 mph46.5 kmh 29.58 in1001.7 mb 0.00 in0.0 mm 0.00 in0.0 mm 0.00 in0.0 mm
04:00 AM 54.1°F12.3°C 41.8°F5.4°C 63% 5.5 mph WNW8.9 kmh WNW 19.7 mph31.7 kmh 29.58 in1001.7 mb 0.00 in0.0 mm 0.00 in0.0 mm 0.00 in0.0 mm
03:45 AM 61.5°F16.4°C 48.8°F9.3°C 63% 3.8 mph WNW6.1 kmh WNW 16.8 mph27.0 kmh 29.57 in1001.4 mb 0.00 in0.0 mm 0.00 in0.0 mm 0.00 in0.0 mm
03:30 AM 97.7°F36.5°C 82.6°F28.1°C 62% 4.9 mph NNW7.9 kmh NNW 25.9 mph41.7 kmh 29.58 in1001.7 mb 0.00 in0.0 mm 0.00 in0.0 mm 0.00 in0.0 mm
03:15 AM 93.4°F34.1°C 79.5°F26.4°C 64% 4.2 mph NW6.8 kmh NW 19.0 mph30.6 kmh 29.57 in1001.4 mb 0.00 in0.0 mm 0.00 in0.0 mm 0.00 in0.0 mm
03:00 AM 101.3°F38.5°C 85.5°F29.7°C 61% 7.5 mph W12.1 kmh W 39.6 mph63.7 kmh 29.58 in1001.7 mb 0.00 in0.0 mm 0.00 in0.0 mm 0.00 in0.0 mm
02:45 AM 53.4°F11.9°C 40.3°F4.6°C 61% 5.6 mph W9.0 kmh W 22.1 mph35.6 kmh 29.59 in1002.0 mb 0.00 in0.0 mm 0.00 in0.0 mm 0.00 in0.0 mm
02:30 AM 47.8°F8.8°C 35.5°F1.9°C 62% 4.4 mph NW7.1 kmh NW 20.6 mph33.2 kmh 29.59 in1002.0 mb 0.00 in0.0 mm 0.00 in0.0 mm 0.00 in0.0 mm
02:15 AM 58.3°F14.6°C 45.3°F7.4°C 62% 5.2 mph WSW8.4 kmh WSW 28.9 mph46.5 kmh 29.59 in1002.0 mb 0.00 in0.0 mm 0.00 in0.0 mm 0.00 in0.0 mm
02:00 AM 63.1°F17.3°C 49.9°F9.9°C 62% 4.6 mph NW7.4 kmh NW 22.8 mph36.7 kmh 29.60 in1002.4 mb 0.00 in0.0 mm 0.00 in0.0 mm 0.00 in0.0 mm
01:45 AM 80.4°F26.9°C 64.8°F18.2°C 59% 6.1 mph WNW9.8 kmh WNW 22.1 mph35.6 kmh 29.59 in1002.0 mb 0.00 in0.0 mm 0.00 in0.0 mm 0.00 in0.0 mm
01:30 AM 57.6°F14.2°C 43.4°F6.3°C 59% 4.6 mph NW7.4 kmh NW 22.8 mph36.7 kmh 29.59 in1002.0 mb 0.00 in0.0 mm 0.00 in0.0 mm 0.00 in0.0 mm
01:15 AM 52.9°F11.6°C 40.6°F4.8°C 63% 2.1 mph W3.4 kmh W 10.7 mph17.2 kmh 29.58 in1001.7 mb 0.00 in0.0 mm 0.00 in0.0 mm 0.00 in0.0 mm
01:00 AM 70.3°F21.3°C 57.6°F14.2°C 64% 4.1 mph NW6.6 kmh NW 19.0 mph30.6 kmh 29.58 in1001.7 mb 0.00 in0.0 mm 0.00 in0.0 mm 0.00 in0.0 mm
12:45 AM 110.7°F43.7°C 94.8°F34.9°C 62% 4.9 mph WSW7.9 kmh WSW 25.9 mph41.7 kmh 29.59 in1002.0 mb 0.00 in0.0 mm 0.00 in0.0 mm 0.00 in0.0 mm
12:30 AM 52.3°F11.3°C 39.3°F4.1°C 61% 5.4 mph W8.7 kmh W 27.3 mph43.9 kmh 29.59 in1002.0 mb 0.00 in0.0 mm 0.00 in0.0 mm 0.00 in0.0 mm
12:15 AM 49.3°F9.6°C 36.8°F2.7°C 62% 6.1 mph NW9.8 kmh NW 20.6 mph33.2 kmh 29.59 in1002.0 mb 0.00 in0.0 mm 0.00 in0.0 mm 0.00 in0.0 mm
12:00 AM 53.2°F11.8°C 40.6°F4.8°C 62% 6.3 mph W10.1 kmh W 22.8 mph36.7 kmh 29.60 in1002.4 mb 0.00 in0.0 mm 0.00 in0.0 mm 0.00 in0.0 mm